KRBG/RBG METAR and TAF weather

Enter ICAO airport designator
Station Type Date Time Source
KRBG METAR 2024/04/18 07:53 UTC NOAA

KRBG 180753Z AUTO 00000KT 10SM CLR 06/02 A3017 RMK AO2 SLP216 T00610017 401830022 $


Station Type Date Time Source
KRBG Decoded METAR 2024/04/18 07:53 UTC NOAA

ROSEBURG REGIONAL AIRPORT, OR, United States (KRBG) 43-14N 123-21W 154M
Apr 18, 2024 - 03:53 AM EDT / 2024.04.18 0753 UTC
Wind: Calm:0
Visibility: 10 mile(s):0
Sky conditions: clear
Temperature: 43.0 F (6.1 C)
Dew Point: 35.1 F (1.7 C)
Relative Humidity: 73%
Pressure (altimeter): 30.17 in. Hg (1021 hPa)
ob: KRBG 180753Z AUTO 00000KT 10SM CLR 06/02 A3017 RMK AO2 SLP216 T00610017 401830022
cycle: 8

Station Type Date Time Source
KRBG TAF 2024/04/18 06:51 UTC NOAA